15. August 2022

Uhrzeit Code Wetter Temp. Sichtweite Wolkendecke Wind METAR/SPECI
10:00
V
28 °C 10 km+ 4.000 ft 150° 150° 10 - 15 kt METAR AYPY 150000Z 15010G15KT 9999 SCT015 SCT030 BKN040 28/24 Q1011
09:00
V
27 °C 10 km+ 4.500 ft 160° 160° 10 kt METAR AYPY 142300Z 16010KT 9999 SCT015 SCT025 BKN045 27/24 Q1011
08:00
M
25 °C 10 km+ 2.500 ft 130° 130° 10 kt METAR AYPY 142200Z 13010KT 9999 SCT015 BKN025 25/24 Q1011
07:00
V
25 °C 10 km+ 3.000 ft 140° 140° 5 kt METAR AYPY 142100Z 14005KT 9999 FEW018 BKN030 25/24 Q1010
06:00
V
25 °C 10 km+ 3.000 ft 120° 120° 6 kt METAR AYPY 142000Z 12006KT 9999 FEW010 BKN030 25/24 Q1010
05:00
V
25 °C 10 km+ 3.500 ft 160° 160° 10 kt METAR AYPY 141900Z 16010KT 9999 SCT020 BKN035 25/24 Q1009
04:00
V
25 °C 10 km+ 3.000 ft 160° 160° 5 kt METAR AYPY 141800Z 16005KT 9999 SCT010 BKN030 25/24 Q1009
03:00
M
25 °C 10 km+ 1.000 ft 160° 160° 5 kt METAR AYPY 141700Z 16005KT 9999 SCT005 BKN010 25/24 Q1009
02:00
V
25 °C 10 km+ 5.000 ft 160° 160° 10 kt METAR AYPY 141600Z 16010KT 9999 SCT005 BKN050 25/24 Q1010 RMK/ RERA IN AREA
01:00
V
24 °C 10 km+ 3.000 ft 150° 150° 12 kt METAR AYPY 141500Z 15012KT 9999 SCT005 OVC030 24/24 Q1010 RMK/RA SH IN AREA
00:00
V
25 °C 10 km+ 3.000 ft 160° 160° 10 - 15 kt METAR AYPY 141400Z 16010G15KT 9999 FEW005 BKN030 25/24 Q1010

14. August 2022

Uhrzeit Code Wetter Temp. Sichtweite Wolkendecke Wind METAR/SPECI
23:00
V
25 °C 10 km+ 3.000 ft 160° 160° 10 - 15 kt METAR AYPY 141300Z 16010G15KT 9999 SCT010 BKN030 25/25 Q1011
22:00
V
25 °C 10 km+ 4.000 ft 150° 150° 10 - 15 kt METAR AYPY 141200Z 15010G15KT 9999 SCT010 BKN040 25/24 Q1011
21:00
V
25 °C 10 km+ 4.000 ft 150° 150° 10 - 15 kt METAR AYPY 141100Z 15010G15KT 9999 SCT010 BKN040 25/24 Q1010
20:00
V
26 °C 10 km+ 3.000 ft 160° 160° 10 - 15 kt METAR AYPY 141000Z 16010G15KT 9999 SCT010 BKN030 26/24 Q1010
19:00
M
26 °C 10 km+ 2.000 ft 160° 160° 10 - 15 kt METAR AYPY 140900Z 16010G15KT 9999 SCT010 BKN020 BKN040 26/24 Q1009
18:00
M
26 °C 10 km+ 2.000 ft 160° 160° 15 - 20 kt METAR AYPY 140800Z 16015G20KT 9999 SCT010 BKN020 BKN040 26/25 Q1008
17:00
V
28 °C 10 km+ 15.000 ft 160° 160° 15 - 20 kt METAR AYPY 140700Z 16015G20KT 9999 FEW015 SCT030 BKN150 28/24 Q1008
16:00
V
29 °C 10 km+ 3.000 ft 160° 160° 10 kt METAR AYPY 140600Z 16010KT 9999 SCT015 BKN030 29/24 Q1008
15:00
M
28 °C 10 km+ 2.000 ft 160° 160° 15 - 25 kt METAR AYPY 140500Z 16015G25KT 9999 SCT015 BKN020 28/24 Q1008=
14:00
V
29 °C 10 km+ - 160° 160° 15 - 20 kt METAR AYPY 140400Z 16015G20KT 9999 SCT015 SCT030 29/24 Q1008
13:00
M
29 °C 10 km+ 2.000 ft 160° 160° 10 kt METAR AYPY 140300Z 16010KT 9999 FEW015 BKN020 29/24 Q1009=
12:00
M
27 °C 10 km+ 1.000 ft 160° 160° 15 kt METAR AYPY 140200Z 16015KT 9999 BKN010 27/25 Q1010
11:00
V
27 °C 10 km+ 4.000 ft 160° 160° 15 kt METAR AYPY 140100Z 16015KT 9999 SCT020 BKN040 27/25 Q1011
10:00
M
26 °C 10 km+ 1.000 ft 200° 200° 10 kt METAR AYPY 140000Z 20010KT 9999 HZ OVC010 26/25 Q1011 RMK
09:00
L
25 °C 0 m 1.000 ft 170° 170° 10 kt METAR AYPY 132300Z 17010KT 2000M SHRA OVC010 25/25 Q1011
08:00
L
25 °C 0 m 1.000 ft Var Var 2 kt METAR AYPY 132200Z VRB02KT 500M SHRA SCT005 OVC010 25/24 Q1011
07:30
L
25 °C 0 m 1.000 ft 160° 160° 5 kt METAR AYPY 132130Z 16005KT 1000M SHRA SCT007 OVC010 25/24 Q1011
07:00
L
25 °C 0 m 2.500 ft 160° 160° 5 kt METAR AYPY 132100Z 16005KT 3000M RA BKN025 25/24 Q1010
06:00
M
25 °C 10 km+ 2.500 ft 160° 160° 5 kt METAR AYPY 132000Z 16005KT 9999 FUHZ FEW010 BKN025 25/24 Q1010
04:00
V
25 °C 10 km+ 3.000 ft 180° 180° 3 kt METAR AYPY 131800Z 18003KT 9999 SCT020 BKN030 25/24 Q1009
03:00
V
25 °C 10 km+ 5.000 ft 140° 140° 7 kt METAR AYPY 131700Z 14007KT 9999 SCT030 OVC050 25/24 Q1009
02:00
V
26 °C 10 km+ - 160° 160° 7 kt METAR AYPY 131600Z 16007KT 9999 FEW015 SCT050 26/24 Q1010
00:00
V
26 °C 10 km+ - 150° 150° 10 kt METAR AYPY 131400Z 15010KT 9999 FEW015 SCT040 26/24 Q1011

13. August 2022

Uhrzeit Code Wetter Temp. Sichtweite Wolkendecke Wind METAR/SPECI
23:00
V
26 °C 10 km+ 4.000 ft 160° 160° 10 kt METAR AYPY 131300Z 16010KT 9999 FEW015 BKN040 26/24 Q1011
22:00
V
26 °C 10 km+ 4.000 ft 160° 160° 10 kt METAR AYPY 131200Z 16010KT 9999 FEW015 BKN040 26/24 Q1011
20:00
V
26 °C 10 km+ 3.000 ft 150° 150° 10 kt METAR AYPY 131000Z 15010KT 9999 SCT015 BKN030 26/24 Q1010
19:00
M
26 °C 10 km+ 1.500 ft 160° 160° 10 - 20 kt METAR AYPY 130900Z 16010G20KT 9999 FUHZ BKN015 OVC030 26/24 Q1009
18:00
V
27 °C 10 km+ - 160° 160° 10 - 20 kt METAR AYPY 130800Z 16010G20KT 9999 FUHZ FEW015 SCT025 27/24 Q1009
17:00
V
29 °C 10 km+ - 180° 180° 16 kt METAR AYPY 130700Z 18016KT 9999 FUHZ SCT025 29/24 Q1008
16:00
V
30 °C 10 km+ - 160° 160° 16 kt METAR AYPY 130600Z 16016KT 9999 SCT025 30/23 Q1008
15:00
V
30 °C 10 km+ - 180° 180° 16 kt METAR AYPY 130500Z 18016KT 9999 FEW020 SCT035 30/23 Q1008
14:00
V
29 °C 10 km+ 3.500 ft 180° 180° 16 kt METAR AYPY 130400Z 18016KT 9999 FEW020 SCT025 BKN035 29/23 Q1009
13:00
V
30 °C 10 km+ 5.000 ft 230° 230° 12 kt METAR AYPY 130300Z 23012KT 9999 SCT035 BKN050 30/23 Q1010
12:00
V
30 °C 10 km+ 3.500 ft Var Var 6 kt METAR AYPY 130200Z VRB06KT 9999 SCT020 BKN035 30/24 Q1010
11:00
V
30 °C 10 km+ 3.000 ft Var Var 4 kt METAR AYPY 130100Z VRB04KT 9999 SCT015 BKN030 30/23 Q1011
10:00
V
28 °C 10 km+ 4.000 ft Var Var 2 kt METAR AYPY 130000Z VRB02KT 9999 BKN040 28/23 Q1012
09:00
V
27 °C 10 km+ 4.000 ft Var Var 4 kt METAR AYPY 122300Z VRB04KT 9999 BKN040 27/23 Q1012
08:00
L
23 °C 0 m - Var Var 3 kt METAR AYPY 122200Z VRB03KT 7KM FUHZ FEW010 SCT025 23/22 Q1011
07:00
V
23 °C 10 km+ - Var Var 3 kt METAR AYPY 122100Z VRB03KT 9999 FUHZ FEW010 SCT025 23/22 Q1010
06:00
V
23 °C 10 km+ - Var Var 2 kt METAR AYPY 122000Z VRB02KT 9999 FEW025 SCT050 23/22 Q1010
05:00
V
24 °C 10 km+ - Var Var 3 kt METAR AYPY 121900Z VRB03KT 9999 SCT020 SCT040 24/23 Q1009
04:00
V
24 °C 10 km+ - Var Var 3 kt METAR AYPY 121800Z VRB03KT 9999 SCT035 SCT050 24/23 Q1009
03:00
V
24 °C 10 km+ - Var Var 2 kt METAR AYPY 121700Z VRB02KT 9999 SCT035 SCT050 24/23 Q1009
02:00
V
24 °C 10 km+ - Var Var 2 kt METAR AYPY 121600Z VRB02KT 9999 FEW010 SCT050 SCT090 24/23 Q1009
01:00
V
24 °C 10 km+ - 140° 140° 5 kt METAR AYPY 121500Z 14005KT 9999 FEW010 SCT050 SCT090 24/23 Q1010
Ältere Daten

Wir und Dritte verfolgen dein Internetverhalten auf unserer Website mit Cookies. Wenn du fortfährst, gehen wir davon aus, dass du mit unserer Cookie-Richtlinie einverstanden bist. Mehr erfahren